Time;durP1;ratioP1;P1;durP2;ratioP2;P2;SDS_P1;SDS_P2;PMS_P1;PMS_P2;Temp;Humidity;BMP_temperature;BMP_pressure;BME280_temperature;BME280_humidity;BME280_pressure;Samples;Min_cycle;Max_cycle;Signal;HPM_P1;HPM_P2
2024/02/08 02:50:03;;;;;;;9.65;3.95;;;;;;;;;;4984498;28;20421;-67
2024/02/08 02:52:28;;;;;;;13.07;4.72;;;;;;;;;;4996195;28;20038;-67
2024/02/08 02:54:53;;;;;;;10.07;4.30;;;;;;;;;;4989765;28;20018;-68
2024/02/08 02:57:18;;;;;;;15.73;4.50;;;;;;;;;;4998209;28;20273;-68
2024/02/08 02:59:44;;;;;;;14.65;4.40;;;;;;;;;;4988284;28;21029;-67
2024/02/08 03:02:09;;;;;;;9.13;3.53;;;;;;;;;;5000727;28;20026;-67
2024/02/08 03:04:35;;;;;;;10.45;4.38;;;;;;;;;;5001268;28;20022;-68
2024/02/08 03:07:00;;;;;;;12.82;4.82;;;;;;;;;;5010966;28;20029;-68
2024/02/08 03:09:30;;;;;;;12.43;3.85;;;;;;;;;;5003839;28;20097;-68
2024/02/08 03:11:57;;;;;;;13.80;4.72;;;;;;;;;;5000954;28;20027;-68
2024/02/08 03:14:22;;;;;;;11.25;4.53;;;;;;;;;;4993508;28;20069;-67
2024/02/08 03:16:48;;;;;;;12.05;3.92;;;;;;;;;;5012865;28;20025;-68
2024/02/08 03:19:13;;;;;;;8.93;4.07;;;;;;;;;;5005442;28;20393;-67
2024/02/08 03:21:40;;;;;;;9.77;4.23;;;;;;;;;;5006466;28;20075;-67
2024/02/08 03:24:08;;;;;;;9.88;4.45;;;;;;;;;;4999010;28;20265;-67
2024/02/08 03:26:40;;;;;;;19.77;4.78;;;;;;;;;;5006104;28;20025;-68
2024/02/08 03:29:06;;;;;;;10.07;3.70;;;;;;;;;;4997743;28;20030;-68
2024/02/08 03:31:31;;;;;;;11.55;4.60;;;;;;;;;;5006046;28;20014;-67
2024/02/08 03:33:56;;;;;;;7.93;3.67;;;;;;;;;;5012897;28;20107;-67
2024/02/08 03:36:23;;;;;;;9.73;4.17;;;;;;;;;;5011384;28;20752;-68
2024/02/08 03:38:52;;;;;;;12.45;3.30;;;;;;;;;;5006821;28;20842;-68
2024/02/08 03:41:17;;;;;;;13.32;4.18;;;;;;;;;;5004435;28;20033;-67
2024/02/08 03:43:42;;;;;;;12.07;4.13;;;;;;;;;;5004047;28;20041;-68
2024/02/08 03:46:08;;;;;;;9.77;4.17;;;;;;;;;;5000273;28;20273;-68
2024/02/08 03:48:33;;;;;;;18.17;3.90;;;;;;;;;;5000750;28;20348;-67
2024/02/08 03:51:00;;;;;;;11.65;3.80;;;;;;;;;;5008696;28;20640;-69
2024/02/08 03:53:25;;;;;;;12.80;4.05;;;;;;;;;;4997297;28;20021;-68
2024/02/08 03:55:51;;;;;;;10.20;4.53;;;;;;;;;;4988433;28;20018;-68
2024/02/08 03:58:17;;;;;;;11.90;4.22;;;;;;;;;;5000520;28;20335;-67
2024/02/08 04:00:46;;;;;;;12.35;4.30;;;;;;;;;;5005095;28;20110;-67
2024/02/08 04:03:13;;;;;;;10.82;3.72;;;;;;;;;;5000262;28;20026;-67
2024/02/08 04:08:32;;;;;;;11.35;3.60;;;;;;;;;;4997586;28;20026;-68
2024/02/08 04:54:32;;;;;;;12.88;4.68;;;;;;;;;;4993353;28;20029;-67
2024/02/08 04:56:59;;;;;;;17.67;4.60;;;;;;;;;;5005456;28;20417;-67
2024/02/08 04:59:24;;;;;;;13.85;4.93;;;;;;;;;;5000286;28;20038;-67
2024/02/08 05:01:50;;;;;;;20.77;5.40;;;;;;;;;;4996907;28;20034;-68
2024/02/08 05:04:20;;;;;;;8.10;3.93;;;;;;;;;;4996036;28;20035;-67
2024/02/08 05:06:46;;;;;;;12.52;6.85;;;;;;;;;;5007151;28;20289;-69
2024/02/08 05:09:15;;;;;;;15.07;4.72;;;;;;;;;;4997072;28;20109;-68
2024/02/08 05:11:43;;;;;;;14.40;5.03;;;;;;;;;;4995848;28;20621;-67
2024/02/08 05:14:09;;;;;;;3.90;1.75;;;;;;;;;;4995571;28;20030;-67
2024/02/08 05:16:36;;;;;;;13.20;4.35;;;;;;;;;;4999135;28;20014;-68
2024/02/08 05:19:01;;;;;;;12.70;5.10;;;;;;;;;;4992822;28;20022;-68
2024/02/08 05:21:31;;;;;;;12.82;4.80;;;;;;;;;;4998814;28;20026;-67
2024/02/08 05:23:58;;;;;;;13.27;5.10;;;;;;;;;;5002424;28;20026;-68
2024/02/08 05:26:25;;;;;;;14.07;4.90;;;;;;;;;;4994142;28;20031;-68
2024/02/08 05:28:52;;;;;;;13.25;4.95;;;;;;;;;;4991914;28;20018;-68
2024/02/08 05:31:18;;;;;;;11.00;5.82;;;;;;;;;;4998523;28;21470;-68
2024/02/08 05:33:43;;;;;;;9.98;4.45;;;;;;;;;;5002614;28;20026;-67
2024/02/08 05:36:12;;;;;;;10.68;4.97;;;;;;;;;;5009749;28;20025;-68
2024/02/08 05:38:41;;;;;;;10.75;3.63;;;;;;;;;;5003246;28;20533;-67
2024/02/08 05:41:10;;;;;;;12.70;5.05;;;;;;;;;;5003353;28;20029;-67
2024/02/08 05:43:44;;;;;;;8.10;2.55;;;;;;;;;;5006067;28;20596;-68
2024/02/08 05:46:10;;;;;;;9.43;3.97;;;;;;;;;;5004852;28;20037;-67
2024/02/08 05:48:39;;;;;;;14.68;5.32;;;;;;;;;;4996535;28;20025;-67
2024/02/08 05:51:05;;;;;;;13.10;5.25;;;;;;;;;;4997635;28;20029;-67
2024/02/08 05:53:32;;;;;;;28.52;5.40;;;;;;;;;;5001982;28;20488;-67
2024/02/08 05:55:59;;;;;;;14.68;5.68;;;;;;;;;;4998749;28;20050;-67
2024/02/08 05:58:27;;;;;;;13.07;5.53;;;;;;;;;;5003432;28;20019;-67
2024/02/08 06:01:01;;;;;;;17.35;5.70;;;;;;;;;;4999465;28;20026;-68
2024/02/08 06:03:33;;;;;;;14.27;6.07;;;;;;;;;;4989380;28;20018;-67
2024/02/08 06:06:06;;;;;;;16.40;6.15;;;;;;;;;;4989549;28;20026;-68
2024/02/08 06:08:39;;;;;;;19.17;6.78;;;;;;;;;;4996345;28;20061;-68
2024/02/08 06:11:08;;;;;;;18.63;6.60;;;;;;;;;;5003625;28;20052;-68
2024/02/08 06:13:37;;;;;;;14.70;5.63;;;;;;;;;;5007526;28;20378;-68
2024/02/08 06:16:14;;;;;;;13.20;5.93;;;;;;;;;;4993022;28;20032;-68
2024/02/08 06:18:40;;;;;;;15.73;5.65;;;;;;;;;;4997198;28;20045;-69
2024/02/08 06:21:18;;;;;;;18.50;5.88;;;;;;;;;;5000693;28;20021;-68
2024/02/08 06:23:45;;;;;;;17.67;7.60;;;;;;;;;;5004440;28;20053;-68
2024/02/08 06:28:46;;;;;;;16.35;6.50;;;;;;;;;;4992885;28;20489;-68
2024/02/08 06:31:14;;;;;;;14.55;5.93;;;;;;;;;;4985747;28;20028;-67
2024/02/08 06:34:09;;;;;;;18.35;5.68;;;;;;;;;;4988852;28;20030;-68
2024/02/08 06:36:30;;;;;;;14.07;6.35;;;;;;;;;;4989457;28;20037;-68
2024/02/08 06:38:55;;;;;;;15.95;5.68;;;;;;;;;;4995081;28;20026;-68
2024/02/08 06:41:24;;;;;;;15.85;5.65;;;;;;;;;;4991951;28;21062;-68
2024/02/08 06:44:42;;;;;;;16.90;6.10;;;;;;;;;;4991030;28;20430;-68
2024/02/08 06:46:48;;;;;;;14.73;6.07;;;;;;;;;;4987347;28;20516;-68
2024/02/08 07:39:30;;;;;;;18.92;6.40;;;;;;;;;;4989281;28;20100;-69
2024/02/08 07:41:40;;;;;;;13.95;6.05;;;;;;;;;;4994405;28;20029;-68
2024/02/08 07:44:09;;;;;;;15.35;5.20;;;;;;;;;;4989077;28;20014;-68
2024/02/08 07:46:34;;;;;;;15.38;6.50;;;;;;;;;;4994444;28;20060;-69
2024/02/08 07:49:04;;;;;;;17.48;6.20;;;;;;;;;;5000563;28;20018;-68
2024/02/08 07:51:33;;;;;;;23.85;6.80;;;;;;;;;;4992943;28;20422;-68
2024/02/08 07:53:59;;;;;;;14.68;5.30;;;;;;;;;;4994876;28;20037;-68
2024/02/08 07:58:56;;;;;;;10.05;2.92;;;;;;;;;;4997778;28;20029;-68
2024/02/08 08:01:21;;;;;;;17.77;6.32;;;;;;;;;;4996854;28;20100;-68
2024/02/08 08:03:49;;;;;;;20.13;6.75;;;;;;;;;;4993584;28;20477;-69
2024/02/08 08:06:15;;;;;;;16.23;6.65;;;;;;;;;;4996374;28;20030;-68
2024/02/08 08:08:41;;;;;;;17.23;6.25;;;;;;;;;;5000830;28;20022;-69
2024/02/08 08:11:06;;;;;;;22.45;7.18;;;;;;;;;;4998547;28;20033;-68
2024/02/08 08:14:06;;;;;;;15.10;6.78;;;;;;;;;;4991776;28;20018;-68
2024/02/08 08:18:58;;;;;;;17.83;6.88;;;;;;;;;;4986489;28;20034;-68
2024/02/08 08:21:25;;;;;;;14.13;6.13;;;;;;;;;;5000874;28;20594;-68
2024/02/08 08:23:59;;;;;;;16.13;7.53;;;;;;;;;;5001745;28;20018;-68
2024/02/08 08:26:25;;;;;;;20.50;7.50;;;;;;;;;;5007145;28;20030;-68
2024/02/08 08:28:53;;;;;;;19.35;7.53;;;;;;;;;;5012658;22;20847;-87
2024/02/08 08:31:46;;;;;;;17.63;7.32;;;;;;;;;;5005887;28;20091;-87
2024/02/08 08:36:58;;;;;;;19.30;6.97;;;;;;;;;;5031762;28;20022;-87
2024/02/08 08:42:16;;;;;;;14.75;6.60;;;;;;;;;;5031444;28;20036;-88
2024/02/08 08:44:48;;;;;;;16.10;6.28;;;;;;;;;;5038989;28;20037;-88
2024/02/08 08:47:17;;;;;;;20.80;7.50;;;;;;;;;;5028080;28;20041;-88
2024/02/08 08:49:50;;;;;;;16.10;6.53;;;;;;;;;;5030897;28;20017;-86
2024/02/08 08:52:47;;;;;;;13.82;5.68;;;;;;;;;;5044168;28;20083;-88
2024/02/08 08:55:20;;;;;;;14.00;5.60;;;;;;;;;;5027556;28;20040;-88
2024/02/08 08:58:12;;;;;;;11.75;5.75;;;;;;;;;;5035816;28;20021;-87
2024/02/08 09:00:46;;;;;;;8.45;3.90;;;;;;;;;;5022162;28;20044;-87
2024/02/08 09:03:27;;;;;;;13.50;4.18;;;;;;;;;;5026400;28;20017;-87
2024/02/08 09:06:00;;;;;;;3.95;1.63;;;;;;;;;;5030155;28;20105;-88
2024/02/08 09:08:42;;;;;;;8.77;2.80;;;;;;;;;;5030725;28;20028;-88
2024/02/08 09:11:12;;;;;;;11.88;5.60;;;;;;;;;;5028586;28;20013;-88
2024/02/08 09:13:38;;;;;;;13.93;5.78;;;;;;;;;;5031929;28;20025;-87
2024/02/08 09:21:32;;;;;;;4.75;1.67;;;;;;;;;;5030451;28;20032;-87
2024/02/08 09:24:07;;;;;;;7.60;2.78;;;;;;;;;;5029683;28;20018;-87
2024/02/08 09:26:48;;;;;;;8.55;4.10;;;;;;;;;;5040786;28;20036;-88
2024/02/08 09:29:13;;;;;;;11.15;5.05;;;;;;;;;;5042272;28;20057;-88
2024/02/08 09:31:46;;;;;;;13.07;3.97;;;;;;;;;;5039423;28;20584;-86
2024/02/08 09:34:20;;;;;;;11.57;3.72;;;;;;;;;;5033654;28;20022;-88
2024/02/08 09:36:51;;;;;;;9.10;4.75;;;;;;;;;;5027605;28;20018;-87
2024/02/08 09:39:53;;;;;;;5.50;2.88;;;;;;;;;;5031778;28;20025;-87
2024/02/08 09:48:00;;;;;;;11.90;4.80;;;;;;;;;;5029621;28;20028;-87
2024/02/08 09:50:35;;;;;;;9.02;4.05;;;;;;;;;;5028542;28;20497;-88
2024/02/08 09:53:09;;;;;;;2.22;1.33;;;;;;;;;;5028991;28;20026;-87
2024/02/08 09:55:35;;;;;;;8.43;3.35;;;;;;;;;;5029066;28;20010;-87
2024/02/08 09:58:04;;;;;;;1.92;1.25;;;;;;;;;;5028132;28;20052;-88
2024/02/08 10:00:44;;;;;;;8.10;3.17;;;;;;;;;;5027630;28;20788;-88
2024/02/08 10:03:31;;;;;;;;;;;;;;;;;;5025053;28;20528;-88
2024/02/08 10:05:57;;;;;;;8.05;3.90;;;;;;;;;;5029102;28;19906;-87
2024/02/08 10:08:31;;;;;;;10.27;3.90;;;;;;;;;;5029628;28;20545;-87
2024/02/08 10:11:23;;;;;;;4.43;2.45;;;;;;;;;;5026291;28;20422;-87
2024/02/08 10:14:02;;;;;;;9.10;4.25;;;;;;;;;;5026726;28;20018;-87
2024/02/08 10:16:42;;;;;;;6.60;2.90;;;;;;;;;;5025558;28;20486;-88
2024/02/08 10:19:43;;;;;;;4.50;2.58;;;;;;;;;;5026859;28;20483;-86
2024/02/08 10:22:26;;;;;;;4.82;2.72;;;;;;;;;;5025480;28;20018;-86
2024/02/08 10:27:29;;;;;;;8.82;3.97;;;;;;;;;;5030015;28;20024;-88
2024/02/08 10:30:12;;;;;;;9.00;4.03;;;;;;;;;;5028386;28;20666;-89
2024/02/08 10:32:37;;;;;;;5.80;2.85;;;;;;;;;;5030476;28;20017;-89
2024/02/08 10:35:19;;;;;;;6.82;3.47;;;;;;;;;;5027794;28;20505;-88
2024/02/08 10:38:07;;;;;;;5.72;3.10;;;;;;;;;;5030198;28;20018;-87
2024/02/08 10:40:34;;;;;;;6.07;3.10;;;;;;;;;;5028605;28;20024;-90
2024/02/08 10:43:23;;;;;;;9.00;3.58;;;;;;;;;;5029177;28;20022;-88
2024/02/08 10:46:16;;;;;;;7.97;3.70;;;;;;;;;;5032534;28;20034;-88
2024/02/08 10:48:52;;;;;;;6.68;3.67;;;;;;;;;;5039215;28;20305;-88
2024/02/08 10:51:25;;;;;;;5.63;3.15;;;;;;;;;;5037316;28;20021;-88
2024/02/08 10:54:05;;;;;;;3.88;2.38;;;;;;;;;;5051997;28;20085;-89
2024/02/08 10:56:50;;;;;;;4.77;2.67;;;;;;;;;;5036975;28;20014;-88
2024/02/08 10:59:39;;;;;;;7.18;3.95;;;;;;;;;;5037519;28;20014;-88
2024/02/08 11:03:00;;;;;;;9.88;4.35;;;;;;;;;;5024581;28;20021;-88
2024/02/08 11:05:12;;;;;;;2.55;1.65;;;;;;;;;;5018246;28;20025;-88
2024/02/08 11:07:45;;;;;;;6.63;3.22;;;;;;;;;;5029196;28;20026;-89
2024/02/08 11:10:20;;;;;;;7.85;3.97;;;;;;;;;;5027034;28;20021;-87
2024/02/08 11:12:48;;;;;;;8.52;4.45;;;;;;;;;;5027698;28;20044;-88
2024/02/08 11:15:19;;;;;;;4.95;1.88;;;;;;;;;;5023872;28;20024;-87
2024/02/08 11:17:57;;;;;;;3.13;1.40;;;;;;;;;;5031277;28;20597;-87
2024/02/08 11:20:23;;;;;;;5.22;3.45;;;;;;;;;;5040993;28;20475;-87
2024/02/08 11:22:57;;;;;;;6.32;3.40;;;;;;;;;;5031102;28;20030;-86
2024/02/08 11:25:33;;;;;;;6.85;3.70;;;;;;;;;;5032528;28;20033;-87
2024/02/08 11:28:08;;;;;;;5.35;2.58;;;;;;;;;;5035147;28;20013;-87
2024/02/08 11:30:39;;;;;;;11.02;3.17;;;;;;;;;;5031746;28;20045;-87
2024/02/08 11:33:05;;;;;;;5.07;3.08;;;;;;;;;;5032125;28;20085;-87
2024/02/08 11:38:30;;;;;;;9.73;2.95;;;;;;;;;;5033450;28;20611;-87
2024/02/08 11:40:59;;;;;;;;;;;;;;;;;;5029106;28;20049;-88
2024/02/08 11:43:26;;;;;;;5.80;3.25;;;;;;;;;;5031938;28;20354;-87
2024/02/08 11:46:18;;;;;;;4.03;2.42;;;;;;;;;;5031424;28;20018;-88
2024/02/08 11:48:44;;;;;;;5.93;3.05;;;;;;;;;;5032760;28;20117;-88
2024/02/08 11:51:13;;;;;;;4.47;2.60;;;;;;;;;;5030060;28;20116;-87
2024/02/08 11:53:39;;;;;;;3.65;2.45;;;;;;;;;;5031772;28;20009;-87
2024/02/08 11:56:08;;;;;;;6.13;2.72;;;;;;;;;;5030498;28;20018;-87
2024/02/08 11:58:43;;;;;;;4.22;2.17;;;;;;;;;;5033305;28;20483;-88
2024/02/08 12:01:15;;;;;;;2.05;1.20;;;;;;;;;;5029934;28;20036;-87
2024/02/08 12:03:43;;;;;;;3.45;2.05;;;;;;;;;;5032532;28;20025;-88
2024/02/08 12:06:26;;;;;;;3.67;2.00;;;;;;;;;;5030016;28;20017;-86
2024/02/08 12:08:59;;;;;;;3.70;2.03;;;;;;;;;;5031264;28;20021;-87
2024/02/08 12:11:30;;;;;;;4.35;2.13;;;;;;;;;;5046010;28;20478;-88
2024/02/08 12:14:15;;;;;;;4.70;2.20;;;;;;;;;;5032811;28;20458;-87
2024/02/08 12:16:50;;;;;;;3.50;1.23;;;;;;;;;;5032337;28;20116;-86
2024/02/08 12:19:16;;;;;;;4.47;2.03;;;;;;;;;;5030852;28;20080;-88
2024/02/08 12:21:56;;;;;;;2.13;1.40;;;;;;;;;;5033282;28;20482;-88
2024/02/08 12:24:23;;;;;;;2.65;1.70;;;;;;;;;;5030117;28;20116;-87
2024/02/08 12:27:25;;;;;;;3.63;2.05;;;;;;;;;;5032337;28;20044;-87
2024/02/08 12:33:11;;;;;;;5.75;2.40;;;;;;;;;;5030560;28;20026;-88
2024/02/08 12:35:41;;;;;;;3.28;2.13;;;;;;;;;;5031428;28;20026;-88
2024/02/08 12:38:31;;;;;;;;;;;;;;;;;;;;;
2024/02/08 12:41:23;;;;;;;7.13;3.20;;;;;;;;;;5028616;28;20059;-87
2024/02/08 12:43:57;;;;;;;7.57;2.97;;;;;;;;;;5030704;28;20025;-88
2024/02/08 12:46:35;;;;;;;5.40;2.80;;;;;;;;;;5031601;28;20021;-87
2024/02/08 12:49:24;;;;;;;7.07;2.78;;;;;;;;;;5028970;28;20026;-87
2024/02/08 12:52:20;;;;;;;5.03;2.40;;;;;;;;;;4995991;28;20030;-88
2024/02/08 12:55:03;;;;;;;10.07;3.58;;;;;;;;;;5015799;28;20443;-87
2024/02/08 12:57:43;;;;;;;7.03;2.63;;;;;;;;;;5043727;28;20025;-88
2024/02/08 13:03:24;;;;;;;;;;;;;;;;;;5029353;28;20037;-87
2024/02/08 13:06:14;;;;;;;3.97;2.20;;;;;;;;;;5027994;28;19905;-88
2024/02/08 13:08:45;;;;;;;5.25;2.72;;;;;;;;;;5045635;28;20029;-87
2024/02/08 13:11:11;;;;;;;3.67;2.30;;;;;;;;;;5027704;28;20032;-88
2024/02/08 13:13:41;;;;;;;5.00;2.58;;;;;;;;;;5023953;28;20114;-88
2024/02/08 13:16:21;;;;;;;6.75;2.65;;;;;;;;;;5027394;28;20036;-87
2024/02/08 13:18:48;;;;;;;;;;;;;;;;;;5020872;28;20061;-88
2024/02/08 13:21:30;;;;;;;4.95;2.42;;;;;;;;;;5015690;28;19921;-88
2024/02/08 13:24:17;;;;;;;;;;;;;;;;;;;;;
2024/02/08 13:26:51;;;;;;;3.40;1.73;;;;;;;;;;5030467;28;20501;-88
2024/02/08 13:29:45;;;;;;;5.10;2.67;;;;;;;;;;5027736;28;20189;-87
2024/02/08 13:35:28;;;;;;;;;;;;;;;;;;4969641;28;20019;-87
2024/02/08 13:38:00;;;;;;;4.35;2.53;;;;;;;;;;4970684;28;19913;-88
2024/02/08 13:41:00;;;;;;;3.92;2.33;;;;;;;;;;4953964;28;20023;-88
2024/02/08 13:43:36;;;;;;;3.53;1.45;;;;;;;;;;4999552;28;20052;-87
2024/02/08 13:48:59;;;;;;;4.50;2.60;;;;;;;;;;5029289;28;20079;-87
2024/02/08 13:51:29;;;;;;;5.72;3.33;;;;;;;;;;5029548;28;20021;-87
2024/02/08 13:53:57;;;;;;;4.60;2.88;;;;;;;;;;5029784;28;20017;-88
2024/02/08 13:56:57;;;;;;;7.30;3.30;;;;;;;;;;5028738;28;20514;-88
2024/02/08 14:03:28;;;;;;;2.85;2.13;;;;;;;;;;5031641;28;20021;-88
2024/02/08 14:06:09;;;;;;;8.00;3.42;;;;;;;;;;4988491;28;20026;-88
2024/02/08 14:08:35;;;;;;;7.85;3.60;;;;;;;;;;4997977;28;20101;-85
2024/02/08 14:11:09;;;;;;;7.13;3.28;;;;;;;;;;5028305;28;20490;-86
2024/02/08 14:14:10;;;;;;;8.18;2.80;;;;;;;;;;5029458;28;20017;-86
2024/02/08 14:16:56;;;;;;;3.95;2.05;;;;;;;;;;5024530;28;20406;-87
2024/02/08 14:19:36;;;;;;;16.80;5.95;;;;;;;;;;5025983;28;20033;-88
2024/02/08 14:22:24;;;;;;;;;;;;;;;;;;5030612;28;20079;-88
2024/02/08 14:24:54;;;;;;;6.32;2.67;;;;;;;;;;5028724;28;19916;-88
2024/02/08 14:27:23;;;;;;;4.63;2.78;;;;;;;;;;5028348;28;20024;-88
2024/02/08 14:33:08;;;;;;;10.45;2.30;;;;;;;;;;5031422;28;20503;-88
2024/02/08 14:35:33;;;;;;;3.90;2.60;;;;;;;;;;5028849;28;20025;-88
2024/02/08 14:38:08;;;;;;;4.28;2.33;;;;;;;;;;5029627;28;20018;-88
2024/02/08 14:40:39;;;;;;;6.20;2.63;;;;;;;;;;5042553;28;20040;-89
2024/02/08 14:43:07;;;;;;;5.93;2.95;;;;;;;;;;5029808;28;20030;-87
2024/02/08 14:45:38;;;;;;;14.30;3.20;;;;;;;;;;5043509;28;20082;-88
2024/02/08 14:48:09;;;;;;;5.25;2.20;;;;;;;;;;5028338;28;20032;-88
2024/02/08 14:53:40;;;;;;;4.72;2.53;;;;;;;;;;5026853;28;20032;-89
2024/02/08 14:56:10;;;;;;;5.05;2.13;;;;;;;;;;5024274;28;20534;-88
2024/02/08 14:58:56;;;;;;;4.88;1.98;;;;;;;;;;5029018;28;20121;-88
2024/02/08 15:01:38;;;;;;;6.07;2.78;;;;;;;;;;5030504;28;20028;-87
2024/02/08 15:04:03;;;;;;;4.97;2.30;;;;;;;;;;5031901;28;20491;-87
2024/02/08 15:06:38;;;;;;;5.93;2.50;;;;;;;;;;5030534;28;20025;-88
2024/02/08 15:12:10;;;;;;;3.95;1.35;;;;;;;;;;5031320;28;20060;-88
2024/02/08 15:15:18;;;;;;;5.35;2.42;;;;;;;;;;5027445;28;20102;-88
2024/02/08 15:18:02;;;;;;;;;;;;;;;;;;;;;
2024/02/08 15:20:45;;;;;;;6.10;2.35;;;;;;;;;;5033317;28;20033;-88
2024/02/08 15:23:47;;;;;;;6.47;3.08;;;;;;;;;;5030519;28;20029;-85
2024/02/08 15:26:20;;;;;;;3.88;2.13;;;;;;;;;;5031308;28;20013;-85
2024/02/08 15:29:04;;;;;;;11.27;3.67;;;;;;;;;;5028721;28;20079;-85
2024/02/08 15:40:16;;;;;;;13.23;4.35;;;;;;;;;;5032436;28;20024;-86
2024/02/08 15:42:54;;;;;;;15.55;5.90;;;;;;;;;;5034323;28;20029;-86
2024/02/08 15:45:41;;;;;;;17.25;4.90;;;;;;;;;;5034514;28;20043;-87
2024/02/08 15:48:31;;;;;;;35.60;7.63;;;;;;;;;;5031088;28;20038;-88
2024/02/08 15:51:14;;;;;;;32.38;8.02;;;;;;;;;;5032072;28;20132;-88
2024/02/08 15:53:59;;;;;;;4.63;2.22;;;;;;;;;;5035076;28;20453;-87
2024/02/08 15:56:38;;;;;;;9.57;3.15;;;;;;;;;;5031099;28;20105;-87
2024/02/08 15:59:12;;;;;;;6.43;2.63;;;;;;;;;;5027537;28;20526;-87
2024/02/08 16:01:57;;;;;;;10.45;2.67;;;;;;;;;;5029656;28;20025;-87
2024/02/08 16:07:12;;;;;;;19.70;5.57;;;;;;;;;;5033159;28;20036;-88
2024/02/08 16:09:49;;;;;;;8.68;2.97;;;;;;;;;;5030402;28;20053;-87
2024/02/08 16:12:22;;;;;;;7.38;3.08;;;;;;;;;;5031571;28;20037;-87
2024/02/08 16:15:04;;;;;;;20.67;7.40;;;;;;;;;;5032393;28;20097;-87
2024/02/08 16:20:49;;;;;;;31.65;11.20;;;;;;;;;;5033542;28;20028;-87
2024/02/08 16:25:44;;;;;;;9.48;2.65;;;;;;;;;;5032288;28;20032;-87
2024/02/08 16:28:22;;;;;;;12.20;4.18;;;;;;;;;;5031455;28;20057;-88
2024/02/08 16:31:06;;;;;;;13.65;4.10;;;;;;;;;;5032063;28;20025;-87
2024/02/08 16:41:55;;;;;;;8.75;3.03;;;;;;;;;;5031969;28;20112;-88
2024/02/08 16:48:47;;;;;;;7.00;2.90;;;;;;;;;;5027917;28;20025;-87
2024/02/08 16:50:47;;;;;;;16.05;3.88;;;;;;;;;;5026316;28;20056;-87
2024/02/08 16:53:38;;;;;;;11.48;4.63;;;;;;;;;;5030167;28;20021;-88
2024/02/08 16:56:03;;;;;;;14.77;4.78;;;;;;;;;;5029486;28;20025;-88
2024/02/08 17:01:19;;;;;;;10.27;3.47;;;;;;;;;;5026426;28;20399;-87
2024/02/08 17:10:07;;;;;;;21.77;3.97;;;;;;;;;;5028552;28;20116;-87
2024/02/08 17:13:40;;;;;;;15.45;4.43;;;;;;;;;;5031538;28;20275;-86
2024/02/08 17:15:48;;;;;;;10.88;4.30;;;;;;;;;;5031355;28;20115;-86
2024/02/08 17:18:23;;;;;;;13.45;4.85;;;;;;;;;;5028680;28;20018;-86
2024/02/08 17:21:05;;;;;;;4.95;1.85;;;;;;;;;;5025758;28;20071;-86
2024/02/08 17:23:47;;;;;;;9.02;1.95;;;;;;;;;;5028018;28;20018;-86
2024/02/08 17:26:26;;;;;;;18.65;5.70;;;;;;;;;;5030258;28;20613;-86
2024/02/08 17:29:09;;;;;;;14.32;3.97;;;;;;;;;;5028992;28;20036;-85
2024/02/08 17:34:46;;;;;;;7.70;3.30;;;;;;;;;;5029833;28;20017;-86
2024/02/08 17:37:17;;;;;;;11.25;2.47;;;;;;;;;;5027728;28;20041;-85
2024/02/08 17:39:48;;;;;;;14.38;3.30;;;;;;;;;;5030420;28;20483;-86
2024/02/08 17:42:20;;;;;;;13.43;3.90;;;;;;;;;;5101455;27;20148;-69
2024/02/08 17:44:54;;;;;;;18.67;4.40;;;;;;;;;;5094521;28;20506;-69
2024/02/08 17:47:21;;;;;;;21.13;4.20;;;;;;;;;;5061384;27;20348;-69
2024/02/08 17:49:47;;;;;;;15.43;3.70;;;;;;;;;;5053085;28;20020;-69
2024/02/08 17:52:14;;;;;;;17.27;4.75;;;;;;;;;;5059941;28;20119;-69
2024/02/08 17:54:45;;;;;;;11.45;5.05;;;;;;;;;;5051206;28;20013;-69
2024/02/08 17:57:22;;;;;;;22.67;7.00;;;;;;;;;;5065136;28;20078;-69
2024/02/08 17:59:50;;;;;;;41.95;11.02;;;;;;;;;;5066040;28;20017;-67
2024/02/08 18:02:21;;;;;;;28.42;9.15;;;;;;;;;;5059663;28;20036;-67
2024/02/08 18:04:49;;;;;;;38.83;13.77;;;;;;;;;;5057118;28;20159;-67
2024/02/08 18:07:14;;;;;;;30.95;12.18;;;;;;;;;;5060526;28;20058;-67
2024/02/08 18:09:39;;;;;;;43.17;11.57;;;;;;;;;;5063747;28;20104;-67
2024/02/08 18:12:13;;;;;;;29.00;9.10;;;;;;;;;;5055874;28;20757;-67
2024/02/08 18:14:42;;;;;;;62.20;18.00;;;;;;;;;;5052345;28;20040;-67
2024/02/08 18:17:14;;;;;;;62.08;20.30;;;;;;;;;;5056736;28;20025;-70
2024/02/08 18:19:42;;;;;;;39.28;13.43;;;;;;;;;;5058463;28;20025;-69
2024/02/08 18:22:07;;;;;;;34.70;8.75;;;;;;;;;;5050714;28;20515;-70
2024/02/08 18:24:34;;;;;;;36.53;9.37;;;;;;;;;;5055775;28;20028;-69
2024/02/08 18:27:00;;;;;;;51.78;12.82;;;;;;;;;;5060700;28;20366;-69
2024/02/08 18:29:26;;;;;;;36.38;10.95;;;;;;;;;;5063988;28;20021;-70
2024/02/08 18:31:52;;;;;;;29.35;8.95;;;;;;;;;;5048546;28;20051;-70
2024/02/08 18:34:20;;;;;;;12.20;4.05;;;;;;;;;;5052662;28;20546;-69
2024/02/08 18:36:46;;;;;;;17.45;6.13;;;;;;;;;;5060648;28;20152;-69
2024/02/08 18:39:25;;;;;;;30.63;9.48;;;;;;;;;;5056930;28;20553;-69
2024/02/08 18:41:50;;;;;;;34.13;9.07;;;;;;;;;;5050578;28;20097;-69
2024/02/08 18:44:18;;;;;;;45.30;11.63;;;;;;;;;;5053077;28;20480;-69
2024/02/08 18:46:44;;;;;;;29.02;10.25;;;;;;;;;;5059024;28;20496;-69
2024/02/08 18:49:09;;;;;;;46.42;13.60;;;;;;;;;;5061699;28;20124;-69
2024/02/08 18:51:34;;;;;;;50.50;15.65;;;;;;;;;;5054729;28;20104;-69
2024/02/08 18:54:00;;;;;;;46.13;14.82;;;;;;;;;;5038970;28;20013;-69
2024/02/08 18:56:25;;;;;;;58.97;15.85;;;;;;;;;;5046176;28;20044;-69
2024/02/08 18:58:54;;;;;;;42.92;12.70;;;;;;;;;;5044421;28;20023;-69
2024/02/08 19:01:20;;;;;;;49.65;16.73;;;;;;;;;;5037603;28;20120;-69
2024/02/08 19:03:46;;;;;;;64.93;22.20;;;;;;;;;;5041148;28;20013;-69
2024/02/08 19:06:14;;;;;;;66.00;21.33;;;;;;;;;;5044292;28;20025;-69
2024/02/08 19:08:41;;;;;;;43.00;14.38;;;;;;;;;;5048509;28;20009;-69
2024/02/08 19:11:07;;;;;;;45.63;14.50;;;;;;;;;;5049154;28;20017;-69
2024/02/08 19:13:35;;;;;;;81.00;23.33;;;;;;;;;;5031648;28;20479;-69
2024/02/08 19:16:07;;;;;;;16.88;6.90;;;;;;;;;;5043840;28;20017;-69
2024/02/08 19:18:37;;;;;;;16.95;7.28;;;;;;;;;;5047850;28;20024;-69
2024/02/08 19:21:04;;;;;;;12.15;4.32;;;;;;;;;;5048466;28;20024;-70
2024/02/08 19:23:33;;;;;;;10.48;5.22;;;;;;;;;;5034848;28;20049;-69
2024/02/08 19:25:59;;;;;;;9.45;3.08;;;;;;;;;;5042134;28;20411;-70
2024/02/08 19:28:24;;;;;;;15.83;4.37;;;;;;;;;;5046794;28;20029;-70
2024/02/08 19:30:55;;;;;;;9.48;3.25;;;;;;;;;;5043891;28;20252;-70
2024/02/08 19:33:23;;;;;;;31.27;9.27;;;;;;;;;;5034372;28;20013;-69
2024/02/08 19:35:54;;;;;;;8.05;3.45;;;;;;;;;;5042586;28;20067;-70
2024/02/08 19:38:19;;;;;;;33.25;9.85;;;;;;;;;;5044756;28;20089;-70
2024/02/08 19:40:47;;;;;;;34.38;9.75;;;;;;;;;;5045085;28;20033;-70
2024/02/08 19:43:12;;;;;;;24.02;7.47;;;;;;;;;;5037870;28;20021;-69
2024/02/08 19:45:42;;;;;;;31.83;8.98;;;;;;;;;;5045316;28;20023;-69
2024/02/08 19:48:17;;;;;;;30.42;10.57;;;;;;;;;;5044335;28;20082;-70
2024/02/08 19:50:44;;;;;;;13.52;6.03;;;;;;;;;;5041397;28;20404;-70
2024/02/08 19:53:10;;;;;;;16.67;6.05;;;;;;;;;;5039385;28;20107;-70
2024/02/08 19:55:37;;;;;;;11.63;3.97;;;;;;;;;;5041809;28;20113;-70
2024/02/08 19:58:07;;;;;;;14.73;5.43;;;;;;;;;;5041852;28;20255;-69
2024/02/08 20:00:32;;;;;;;;;;;;;;;;;;5042062;28;20021;-70
2024/02/08 20:03:07;;;;;;;20.52;8.38;;;;;;;;;;5042619;28;19916;-70
2024/02/08 20:05:35;;;;;;;14.93;6.72;;;;;;;;;;5034411;28;20033;-70
2024/02/08 20:08:03;;;;;;;17.63;5.05;;;;;;;;;;5040719;28;20013;-69
2024/02/08 20:10:35;;;;;;;15.25;4.45;;;;;;;;;;5045978;28;20056;-69
2024/02/08 20:13:11;;;;;;;19.20;6.22;;;;;;;;;;5033135;28;20416;-70
2024/02/08 20:15:39;;;;;;;7.55;1.13;;;;;;;;;;5038981;28;20098;-70
2024/02/08 20:18:07;;;;;;;11.70;3.97;;;;;;;;;;5046147;28;20490;-69
2024/02/08 20:20:34;;;;;;;16.98;6.45;;;;;;;;;;5041164;28;20020;-69
2024/02/08 20:23:10;;;;;;;34.08;10.63;;;;;;;;;;5037253;28;20018;-69
2024/02/08 20:25:39;;;;;;;16.27;6.43;;;;;;;;;;5044191;28;20051;-69
2024/02/08 20:28:06;;;;;;;14.60;5.57;;;;;;;;;;5054258;28;20104;-69
2024/02/08 20:30:33;;;;;;;16.95;3.92;;;;;;;;;;5040386;28;20021;-69
2024/02/08 20:33:01;;;;;;;6.45;3.95;;;;;;;;;;5041801;28;20040;-70
2024/02/08 20:35:26;;;;;;;10.38;3.28;;;;;;;;;;5040976;28;20033;-69
2024/02/08 20:37:51;;;;;;;5.78;3.17;;;;;;;;;;5044257;28;20087;-69
2024/02/08 20:40:17;;;;;;;9.45;3.83;;;;;;;;;;5037472;28;20490;-70
2024/02/08 20:42:44;;;;;;;10.13;3.38;;;;;;;;;;5031592;28;20074;-69
2024/02/08 20:45:11;;;;;;;11.35;3.65;;;;;;;;;;5025981;28;20129;-70
2024/02/08 20:47:37;;;;;;;7.17;3.20;;;;;;;;;;5032960;28;20104;-70
2024/02/08 20:50:04;;;;;;;7.50;3.00;;;;;;;;;;5035699;28;20305;-69
2024/02/08 20:52:29;;;;;;;10.73;3.75;;;;;;;;;;5028917;28;20009;-69
2024/02/08 20:54:54;;;;;;;7.75;2.92;;;;;;;;;;5032012;28;20014;-69
2024/02/08 20:57:19;;;;;;;9.77;3.33;;;;;;;;;;5032162;28;20020;-69
2024/02/08 20:59:46;;;;;;;8.80;2.90;;;;;;;;;;5032375;28;20417;-69
2024/02/08 21:02:15;;;;;;;2.05;1.15;;;;;;;;;;5035176;28;20311;-70
2024/02/08 21:04:40;;;;;;;6.55;2.83;;;;;;;;;;5036060;28;20098;-69
2024/02/08 21:07:06;;;;;;;7.78;2.75;;;;;;;;;;5043312;28;20044;-69
2024/02/08 21:09:31;;;;;;;5.80;2.20;;;;;;;;;;5031389;28;20048;-69
2024/02/08 21:11:56;;;;;;;6.53;2.60;;;;;;;;;;5033032;28;20403;-70
2024/02/08 21:14:21;;;;;;;8.27;3.75;;;;;;;;;;5038933;28;20266;-70